sensor_id;sensor_type;location;lat;lon;timestamp;pressure;altitude;pressure_sealevel;temperature;humidity
15405;BME280;7801;48.124;11.590;2023-12-20T00:00:18;95436.66;;;7.02;59.23
15405;BME280;7801;48.124;11.590;2023-12-20T00:02:43;95437.44;;;6.92;59.78
15405;BME280;7801;48.124;11.590;2023-12-20T00:05:15;95425.56;;;7.05;59.28
15405;BME280;7801;48.124;11.590;2023-12-20T00:07:40;95417.41;;;6.96;59.75
15405;BME280;7801;48.124;11.590;2023-12-20T00:10:06;95422.41;;;6.98;59.68
15405;BME280;7801;48.124;11.590;2023-12-20T00:12:32;95412.41;;;7.00;59.66
15405;BME280;7801;48.124;11.590;2023-12-20T00:14:57;95408.72;;;6.90;60.05
15405;BME280;7801;48.124;11.590;2023-12-20T00:17:23;95409.75;;;6.95;60.24
15405;BME280;7801;48.124;11.590;2023-12-20T00:19:48;95400.78;;;7.06;60.23
15405;BME280;7801;48.124;11.590;2023-12-20T00:22:13;95400.78;;;7.01;60.15
15405;BME280;7801;48.124;11.590;2023-12-20T00:24:39;95404.97;;;7.12;60.13
15405;BME280;7801;48.124;11.590;2023-12-20T00:27:04;95408.88;;;7.24;59.79
15405;BME280;7801;48.124;11.590;2023-12-20T00:29:29;95401.53;;;7.11;60.60
15405;BME280;7801;48.124;11.590;2023-12-20T00:31:55;95386.47;;;7.22;59.82
15405;BME280;7801;48.124;11.590;2023-12-20T00:34:20;95392.03;;;7.15;59.67
15405;BME280;7801;48.124;11.590;2023-12-20T00:36:46;95387.03;;;7.14;60.61
15405;BME280;7801;48.124;11.590;2023-12-20T00:39:12;95385.50;;;7.03;60.33
15405;BME280;7801;48.124;11.590;2023-12-20T00:41:37;95388.13;;;6.98;59.00
15405;BME280;7801;48.124;11.590;2023-12-20T00:44:03;95376.97;;;7.21;58.68
15405;BME280;7801;48.124;11.590;2023-12-20T00:46:28;95378.03;;;7.25;58.78
15405;BME280;7801;48.124;11.590;2023-12-20T00:48:53;95371.44;;;7.17;58.40
15405;BME280;7801;48.124;11.590;2023-12-20T00:51:19;95367.47;;;7.25;57.61
15405;BME280;7801;48.124;11.590;2023-12-20T00:53:44;95363.00;;;7.15;57.00
15405;BME280;7801;48.124;11.590;2023-12-20T00:56:09;95366.16;;;7.17;56.23
15405;BME280;7801;48.124;11.590;2023-12-20T00:58:35;95354.81;;;7.22;56.35
15405;BME280;7801;48.124;11.590;2023-12-20T01:01:00;95359.31;;;7.21;56.45
15405;BME280;7801;48.124;11.590;2023-12-20T01:03:25;95355.81;;;7.31;56.61
15405;BME280;7801;48.124;11.590;2023-12-20T01:05:51;95366.63;;;7.35;56.74
15405;BME280;7801;48.124;11.590;2023-12-20T01:08:16;95351.28;;;7.42;55.41
15405;BME280;7801;48.124;11.590;2023-12-20T01:10:41;95350.97;;;7.48;55.34
15405;BME280;7801;48.124;11.590;2023-12-20T01:13:06;95350.50;;;7.41;55.83
15405;BME280;7801;48.124;11.590;2023-12-20T01:15:34;95340.50;;;7.33;55.82
15405;BME280;7801;48.124;11.590;2023-12-20T01:17:59;95329.94;;;7.33;55.95
15405;BME280;7801;48.124;11.590;2023-12-20T01:20:24;95335.75;;;7.30;55.93
15405;BME280;7801;48.124;11.590;2023-12-20T01:22:50;95331.00;;;7.32;56.51
15405;BME280;7801;48.124;11.590;2023-12-20T01:25:16;95333.91;;;7.36;56.57
15405;BME280;7801;48.124;11.590;2023-12-20T01:27:41;95328.09;;;7.34;56.63
15405;BME280;7801;48.124;11.590;2023-12-20T01:30:07;95328.41;;;7.27;56.84
15405;BME280;7801;48.124;11.590;2023-12-20T01:32:34;95325.47;;;7.29;57.01
15405;BME280;7801;48.124;11.590;2023-12-20T01:34:59;95318.88;;;7.31;57.57
15405;BME280;7801;48.124;11.590;2023-12-20T01:37:24;95313.84;;;7.35;57.61
15405;BME280;7801;48.124;11.590;2023-12-20T01:39:50;95314.91;;;7.34;57.93
15405;BME280;7801;48.124;11.590;2023-12-20T01:42:16;95322.31;;;7.32;58.13
15405;BME280;7801;48.124;11.590;2023-12-20T01:44:41;95320.53;;;7.22;58.36
15405;BME280;7801;48.124;11.590;2023-12-20T01:47:07;95316.22;;;7.31;59.55
15405;BME280;7801;48.124;11.590;2023-12-20T01:49:33;95319.38;;;7.38;58.39
15405;BME280;7801;48.124;11.590;2023-12-20T01:51:58;95303.84;;;7.32;59.09
15405;BME280;7801;48.124;11.590;2023-12-20T01:54:24;95303.59;;;7.28;59.87
15405;BME280;7801;48.124;11.590;2023-12-20T01:56:50;95282.97;;;7.35;58.37
15405;BME280;7801;48.124;11.590;2023-12-20T01:59:17;95287.16;;;7.41;58.48
15405;BME280;7801;48.124;11.590;2023-12-20T02:01:42;95284.06;;;7.29;58.41
15405;BME280;7801;48.124;11.590;2023-12-20T02:04:08;95293.03;;;7.28;58.52
15405;BME280;7801;48.124;11.590;2023-12-20T02:06:33;95278.78;;;7.29;58.85
15405;BME280;7801;48.124;11.590;2023-12-20T02:08:59;95280.31;;;7.40;58.56
15405;BME280;7801;48.124;11.590;2023-12-20T02:11:25;95270.56;;;7.36;57.91
15405;BME280;7801;48.124;11.590;2023-12-20T02:13:51;95254.41;;;7.47;59.63
15405;BME280;7801;48.124;11.590;2023-12-20T02:16:16;95256.28;;;7.42;58.47
15405;BME280;7801;48.124;11.590;2023-12-20T02:18:43;95250.13;;;7.51;58.54
15405;BME280;7801;48.124;11.590;2023-12-20T02:21:09;95243.28;;;7.50;58.34
15405;BME280;7801;48.124;11.590;2023-12-20T02:23:34;95236.72;;;7.48;58.61
15405;BME280;7801;48.124;11.590;2023-12-20T02:26:00;95243.00;;;7.52;58.74
15405;BME280;7801;48.124;11.590;2023-12-20T02:28:25;95247.50;;;7.51;58.82
15405;BME280;7801;48.124;11.590;2023-12-20T02:30:50;95242.16;;;7.62;59.15
15405;BME280;7801;48.124;11.590;2023-12-20T02:33:16;95250.09;;;7.56;59.76
15405;BME280;7801;48.124;11.590;2023-12-20T02:35:41;95246.28;;;7.73;58.87
15405;BME280;7801;48.124;11.590;2023-12-20T02:38:07;95250.59;;;7.64;59.26
15405;BME280;7801;48.124;11.590;2023-12-20T02:40:32;95242.63;;;7.69;59.45
15405;BME280;7801;48.124;11.590;2023-12-20T02:42:59;95241.50;;;7.75;58.93
15405;BME280;7801;48.124;11.590;2023-12-20T02:45:24;95243.59;;;7.78;59.25
15405;BME280;7801;48.124;11.590;2023-12-20T02:47:50;95224.63;;;7.71;60.51
15405;BME280;7801;48.124;11.590;2023-12-20T02:50:15;95224.03;;;7.79;60.54
15405;BME280;7801;48.124;11.590;2023-12-20T02:52:44;95226.69;;;7.79;60.28
15405;BME280;7801;48.124;11.590;2023-12-20T02:55:10;95228.53;;;7.78;60.74
15405;BME280;7801;48.124;11.590;2023-12-20T02:57:35;95219.88;;;7.73;60.99
15405;BME280;7801;48.124;11.590;2023-12-20T03:00:01;95214.31;;;7.74;61.14
15405;BME280;7801;48.124;11.590;2023-12-20T03:02:27;95210.66;;;7.70;62.15
15405;BME280;7801;48.124;11.590;2023-12-20T03:04:52;95214.06;;;7.71;61.64
15405;BME280;7801;48.124;11.590;2023-12-20T03:07:17;95212.41;;;7.80;61.74
15405;BME280;7801;48.124;11.590;2023-12-20T03:09:42;95223.38;;;7.68;61.74
15405;BME280;7801;48.124;11.590;2023-12-20T03:12:08;95228.94;;;7.62;62.13
15405;BME280;7801;48.124;11.590;2023-12-20T03:14:33;95226.19;;;7.77;62.20
15405;BME280;7801;48.124;11.590;2023-12-20T03:16:58;95227.75;;;7.78;62.39
15405;BME280;7801;48.124;11.590;2023-12-20T03:19:24;95224.59;;;7.76;63.30
15405;BME280;7801;48.124;11.590;2023-12-20T03:21:49;95230.44;;;7.73;64.01
15405;BME280;7801;48.124;11.590;2023-12-20T03:24:15;95218.75;;;7.79;64.42
15405;BME280;7801;48.124;11.590;2023-12-20T03:26:40;95217.69;;;7.80;64.57
15405;BME280;7801;48.124;11.590;2023-12-20T03:29:07;95225.09;;;7.78;65.22
15405;BME280;7801;48.124;11.590;2023-12-20T03:31:33;95230.91;;;7.80;65.71
15405;BME280;7801;48.124;11.590;2023-12-20T03:33:59;95227.22;;;7.76;66.63
15405;BME280;7801;48.124;11.590;2023-12-20T03:36:24;95232.56;;;7.71;67.43
15405;BME280;7801;48.124;11.590;2023-12-20T03:38:50;95228.81;;;7.77;68.23
15405;BME280;7801;48.124;11.590;2023-12-20T03:41:15;95239.09;;;7.78;68.14
15405;BME280;7801;48.124;11.590;2023-12-20T03:43:40;95240.16;;;7.77;68.53
15405;BME280;7801;48.124;11.590;2023-12-20T03:46:08;95248.91;;;7.73;69.19
15405;BME280;7801;48.124;11.590;2023-12-20T03:48:33;95253.37;;;7.77;70.55
15405;BME280;7801;48.124;11.590;2023-12-20T03:50:59;95256.38;;;7.66;71.78
15405;BME280;7801;48.124;11.590;2023-12-20T03:53:24;95259.06;;;7.61;72.01
15405;BME280;7801;48.124;11.590;2023-12-20T03:55:53;95262.75;;;7.59;73.51
15405;BME280;7801;48.124;11.590;2023-12-20T03:58:20;95268.03;;;7.59;73.80
15405;BME280;7801;48.124;11.590;2023-12-20T04:00:45;95262.75;;;7.59;74.70
15405;BME280;7801;48.124;11.590;2023-12-20T04:03:11;95262.72;;;7.65;75.30
15405;BME280;7801;48.124;11.590;2023-12-20T04:05:39;95264.84;;;7.63;76.24
15405;BME280;7801;48.124;11.590;2023-12-20T04:08:05;95275.44;;;7.57;77.92
15405;BME280;7801;48.124;11.590;2023-12-20T04:10:30;95266.50;;;7.48;79.08
15405;BME280;7801;48.124;11.590;2023-12-20T04:12:56;95273.34;;;7.54;79.08
15405;BME280;7801;48.124;11.590;2023-12-20T04:15:21;95276.97;;;7.64;79.47
15405;BME280;7801;48.124;11.590;2023-12-20T04:17:46;95277.81;;;7.54;80.35
15405;BME280;7801;48.124;11.590;2023-12-20T04:20:12;95280.00;;;7.47;81.29
15405;BME280;7801;48.124;11.590;2023-12-20T04:22:37;95282.66;;;7.47;81.81
15405;BME280;7801;48.124;11.590;2023-12-20T04:25:03;95276.00;;;7.49;81.93
15405;BME280;7801;48.124;11.590;2023-12-20T04:27:28;95276.06;;;7.44;82.92
15405;BME280;7801;48.124;11.590;2023-12-20T04:29:54;95285.59;;;7.35;83.28
15405;BME280;7801;48.124;11.590;2023-12-20T04:32:19;95270.84;;;7.34;83.79
15405;BME280;7801;48.124;11.590;2023-12-20T04:34:44;95267.94;;;7.36;84.28
15405;BME280;7801;48.124;11.590;2023-12-20T04:37:11;95269.78;;;7.30;84.72
15405;BME280;7801;48.124;11.590;2023-12-20T04:39:37;95273.28;;;7.26;85.60
15405;BME280;7801;48.124;11.590;2023-12-20T04:42:03;95268.84;;;7.16;85.80
15405;BME280;7801;48.124;11.590;2023-12-20T04:44:28;95279.94;;;7.13;86.30
15405;BME280;7801;48.124;11.590;2023-12-20T04:46:53;95278.84;;;7.19;86.17
15405;BME280;7801;48.124;11.590;2023-12-20T04:49:19;95287.38;;;7.06;87.12
15405;BME280;7801;48.124;11.590;2023-12-20T04:51:44;95281.78;;;7.12;87.27
15405;BME280;7801;48.124;11.590;2023-12-20T04:54:09;95290.53;;;7.03;88.06
15405;BME280;7801;48.124;11.590;2023-12-20T04:56:35;95300.00;;;7.09;88.22
15405;BME280;7801;48.124;11.590;2023-12-20T04:59:01;95304.81;;;6.97;88.99
15405;BME280;7801;48.124;11.590;2023-12-20T05:01:27;95310.53;;;7.09;89.28
15405;BME280;7801;48.124;11.590;2023-12-20T05:03:52;95305.03;;;7.05;89.89
15405;BME280;7801;48.124;11.590;2023-12-20T05:06:18;95315.09;;;6.98;92.09
15405;BME280;7801;48.124;11.590;2023-12-20T05:08:44;95313.25;;;6.94;95.23
15405;BME280;7801;48.124;11.590;2023-12-20T05:11:10;95323.81;;;6.94;100.00
15405;BME280;7801;48.124;11.590;2023-12-20T05:13:35;95324.91;;;6.77;100.00
15405;BME280;7801;48.124;11.590;2023-12-20T05:16:00;95327.53;;;6.82;100.00
15405;BME280;7801;48.124;11.590;2023-12-20T05:18:26;95328.66;;;6.61;100.00
15405;BME280;7801;48.124;11.590;2023-12-20T05:20:51;95318.09;;;6.66;100.00
15405;BME280;7801;48.124;11.590;2023-12-20T05:23:17;95328.13;;;6.64;100.00
15405;BME280;7801;48.124;11.590;2023-12-20T05:25:42;95325.97;;;6.71;100.00
15405;BME280;7801;48.124;11.590;2023-12-20T05:28:07;95328.34;;;6.73;100.00
15405;BME280;7801;48.124;11.590;2023-12-20T05:30:33;95330.78;;;6.59;100.00
15405;BME280;7801;48.124;11.590;2023-12-20T05:32:58;95334.72;;;6.51;100.00
15405;BME280;7801;48.124;11.590;2023-12-20T05:35:23;95347.69;;;6.43;100.00
15405;BME280;7801;48.124;11.590;2023-12-20T05:37:49;95351.09;;;6.33;100.00
15405;BME280;7801;48.124;11.590;2023-12-20T05:40:15;95338.72;;;6.39;100.00
15405;BME280;7801;48.124;11.590;2023-12-20T05:42:40;95355.59;;;6.43;100.00
15405;BME280;7801;48.124;11.590;2023-12-20T05:45:06;95355.84;;;6.36;100.00
15405;BME280;7801;48.124;11.590;2023-12-20T05:47:32;95359.25;;;6.27;100.00
15405;BME280;7801;48.124;11.590;2023-12-20T05:49:57;95359.28;;;6.11;100.00
15405;BME280;7801;48.124;11.590;2023-12-20T05:52:23;95373.22;;;6.27;100.00
15405;BME280;7801;48.124;11.590;2023-12-20T05:54:52;95361.41;;;6.19;100.00
15405;BME280;7801;48.124;11.590;2023-12-20T05:57:18;95361.66;;;6.13;100.00
15405;BME280;7801;48.124;11.590;2023-12-20T05:59:43;95373.25;;;6.17;100.00
15405;BME280;7801;48.124;11.590;2023-12-20T06:02:08;95372.44;;;6.16;100.00
15405;BME280;7801;48.124;11.590;2023-12-20T06:04:34;95372.97;;;5.98;100.00
15405;BME280;7801;48.124;11.590;2023-12-20T06:06:59;95380.06;;;6.03;100.00
15405;BME280;7801;48.124;11.590;2023-12-20T06:09:26;95379.25;;;5.87;100.00
15405;BME280;7801;48.124;11.590;2023-12-20T06:11:51;95385.09;;;5.99;100.00
15405;BME280;7801;48.124;11.590;2023-12-20T06:14:17;95385.56;;;5.86;100.00
15405;BME280;7801;48.124;11.590;2023-12-20T06:16:42;95396.87;;;5.76;100.00
15405;BME280;7801;48.124;11.590;2023-12-20T06:19:08;95394.53;;;5.80;100.00
15405;BME280;7801;48.124;11.590;2023-12-20T06:21:35;95391.66;;;5.92;100.00
15405;BME280;7801;48.124;11.590;2023-12-20T06:24:01;95411.91;;;5.81;100.00
15405;BME280;7801;48.124;11.590;2023-12-20T06:26:26;95407.44;;;5.81;100.00
15405;BME280;7801;48.124;11.590;2023-12-20T06:28:51;95412.87;;;5.65;100.00
15405;BME280;7801;48.124;11.590;2023-12-20T06:31:17;95411.56;;;5.62;100.00
15405;BME280;7801;48.124;11.590;2023-12-20T06:33:43;95406.03;;;5.53;100.00
15405;BME280;7801;48.124;11.590;2023-12-20T06:36:11;95410.78;;;5.57;100.00
15405;BME280;7801;48.124;11.590;2023-12-20T06:38:38;95421.59;;;5.60;100.00
15405;BME280;7801;48.124;11.590;2023-12-20T06:41:04;95420.25;;;5.58;100.00
15405;BME280;7801;48.124;11.590;2023-12-20T06:43:29;95422.06;;;5.52;100.00
15405;BME280;7801;48.124;11.590;2023-12-20T06:45:55;95430.28;;;5.61;100.00
15405;BME280;7801;48.124;11.590;2023-12-20T06:48:20;95431.03;;;5.51;100.00
15405;BME280;7801;48.124;11.590;2023-12-20T06:50:46;95438.59;;;5.42;100.00
15405;BME280;7801;48.124;11.590;2023-12-20T06:53:11;95441.25;;;5.37;100.00
15405;BME280;7801;48.124;11.590;2023-12-20T06:55:37;95442.87;;;5.53;100.00
15405;BME280;7801;48.124;11.590;2023-12-20T06:58:03;95437.59;;;5.53;100.00
15405;BME280;7801;48.124;11.590;2023-12-20T07:00:28;95436.53;;;5.49;100.00
15405;BME280;7801;48.124;11.590;2023-12-20T07:02:54;95450.47;;;5.50;100.00
15405;BME280;7801;48.124;11.590;2023-12-20T07:05:19;95450.47;;;5.40;100.00
15405;BME280;7801;48.124;11.590;2023-12-20T07:07:45;95448.59;;;5.40;100.00
15405;BME280;7801;48.124;11.590;2023-12-20T07:10:12;95461.97;;;5.29;100.00
15405;BME280;7801;48.124;11.590;2023-12-20T07:12:37;95458.56;;;5.33;100.00
15405;BME280;7801;48.124;11.590;2023-12-20T07:15:03;95463.78;;;5.23;100.00
15405;BME280;7801;48.124;11.590;2023-12-20T07:17:28;95464.56;;;5.24;100.00
15405;BME280;7801;48.124;11.590;2023-12-20T07:19:54;95481.13;;;5.24;100.00
15405;BME280;7801;48.124;11.590;2023-12-20T07:22:19;95480.31;;;5.13;100.00
15405;BME280;7801;48.124;11.590;2023-12-20T07:24:44;95480.91;;;5.31;100.00
15405;BME280;7801;48.124;11.590;2023-12-20T07:27:11;95480.13;;;5.30;100.00
15405;BME280;7801;48.124;11.590;2023-12-20T07:29:36;95488.47;;;5.22;100.00
15405;BME280;7801;48.124;11.590;2023-12-20T07:32:01;95495.06;;;5.20;100.00
15405;BME280;7801;48.124;11.590;2023-12-20T07:34:27;95485.19;;;6.65;100.00
15405;BME280;7801;48.124;11.590;2023-12-20T07:36:52;95498.53;;;8.53;100.00
15405;BME280;7801;48.124;11.590;2023-12-20T07:39:17;95484.31;;;9.60;100.00
15405;BME280;7801;48.124;11.590;2023-12-20T07:41:43;95497.41;;;10.55;100.00
15405;BME280;7801;48.124;11.590;2023-12-20T07:44:09;95498.91;;;10.94;100.00
15405;BME280;7801;48.124;11.590;2023-12-20T07:46:34;95493.88;;;11.52;95.45
15405;BME280;7801;48.124;11.590;2023-12-20T07:48:59;95489.13;;;11.82;95.31
15405;BME280;7801;48.124;11.590;2023-12-20T07:51:25;95491.22;;;12.07;90.90
15405;BME280;7801;48.124;11.590;2023-12-20T07:53:51;95497.56;;;11.97;87.47
15405;BME280;7801;48.124;11.590;2023-12-20T07:56:17;95500.00;;;11.53;84.58
15405;BME280;7801;48.124;11.590;2023-12-20T07:58:43;95509.31;;;8.62;93.03
15405;BME280;7801;48.124;11.590;2023-12-20T08:01:10;95509.63;;;7.42;100.00
15405;BME280;7801;48.124;11.590;2023-12-20T08:03:36;95518.97;;;6.83;100.00
15405;BME280;7801;48.124;11.590;2023-12-20T08:06:02;95517.31;;;6.22;100.00
15405;BME280;7801;48.124;11.590;2023-12-20T08:08:28;95514.81;;;5.84;100.00
15405;BME280;7801;48.124;11.590;2023-12-20T08:10:53;95520.84;;;5.75;100.00
15405;BME280;7801;48.124;11.590;2023-12-20T08:13:18;95526.34;;;5.73;100.00
15405;BME280;7801;48.124;11.590;2023-12-20T08:15:44;95533.50;;;5.78;100.00
15405;BME280;7801;48.124;11.590;2023-12-20T08:18:09;95522.97;;;5.88;100.00
15405;BME280;7801;48.124;11.590;2023-12-20T08:20:34;95526.06;;;5.70;100.00
15405;BME280;7801;48.124;11.590;2023-12-20T08:23:00;95530.81;;;5.73;100.00
15405;BME280;7801;48.124;11.590;2023-12-20T08:25:25;95535.59;;;5.76;100.00
15405;BME280;7801;48.124;11.590;2023-12-20T08:27:51;95522.41;;;5.71;100.00
15405;BME280;7801;48.124;11.590;2023-12-20T08:30:16;95524.53;;;5.84;100.00
15405;BME280;7801;48.124;11.590;2023-12-20T08:32:50;95527.63;;;5.66;100.00
15405;BME280;7801;48.124;11.590;2023-12-20T08:35:16;95530.81;;;5.73;100.00
15405;BME280;7801;48.124;11.590;2023-12-20T08:37:41;95525.59;;;5.83;100.00
15405;BME280;7801;48.124;11.590;2023-12-20T08:40:07;95526.37;;;5.83;100.00
15405;BME280;7801;48.124;11.590;2023-12-20T08:42:32;95528.50;;;5.81;100.00
15405;BME280;7801;48.124;11.590;2023-12-20T08:44:58;95532.97;;;5.81;100.00
15405;BME280;7801;48.124;11.590;2023-12-20T08:47:26;95519.53;;;5.82;100.00
15405;BME280;7801;48.124;11.590;2023-12-20T08:49:52;95526.03;;;5.65;100.00
15405;BME280;7801;48.124;11.590;2023-12-20T08:52:22;95530.34;;;5.81;100.00
15405;BME280;7801;48.124;11.590;2023-12-20T08:54:47;95529.25;;;5.82;100.00
15405;BME280;7801;48.124;11.590;2023-12-20T08:57:15;95506.38;;;11.52;100.00
15405;BME280;7801;48.124;11.590;2023-12-20T08:59:40;95513.31;;;13.02;97.79
15405;BME280;7801;48.124;11.590;2023-12-20T09:02:05;95510.38;;;14.05;85.14
15405;BME280;7801;48.124;11.590;2023-12-20T09:04:31;95522.09;;;14.95;75.60
15405;BME280;7801;48.124;11.590;2023-12-20T09:06:56;95518.00;;;15.06;73.13
15405;BME280;7801;48.124;11.590;2023-12-20T09:09:23;95525.38;;;15.01;68.36
15405;BME280;7801;48.124;11.590;2023-12-20T09:11:48;95525.22;;;15.15;68.39
15405;BME280;7801;48.124;11.590;2023-12-20T09:14:16;95524.72;;;15.30;58.90
15405;BME280;7801;48.124;11.590;2023-12-20T09:16:41;95523.03;;;15.17;59.00
15405;BME280;7801;48.124;11.590;2023-12-20T09:19:07;95530.66;;;11.78;64.80
15405;BME280;7801;48.124;11.590;2023-12-20T09:21:32;95533.16;;;9.20;77.68
15405;BME280;7801;48.124;11.590;2023-12-20T09:23:57;95543.06;;;8.31;82.35
15405;BME280;7801;48.124;11.590;2023-12-20T09:26:25;95523.06;;;7.50;88.56
15405;BME280;7801;48.124;11.590;2023-12-20T09:28:50;95523.09;;;7.35;90.78
15405;BME280;7801;48.124;11.590;2023-12-20T09:31:16;95527.91;;;7.03;92.69
15405;BME280;7801;48.124;11.590;2023-12-20T09:33:41;95525.53;;;6.86;93.25
15405;BME280;7801;48.124;11.590;2023-12-20T09:36:07;95530.50;;;6.47;100.00
15405;BME280;7801;48.124;11.590;2023-12-20T09:38:32;95543.66;;;6.32;100.00
15405;BME280;7801;48.124;11.590;2023-12-20T09:40:57;95539.19;;;6.27;100.00
15405;BME280;7801;48.124;11.590;2023-12-20T09:43:27;95532.06;;;6.17;100.00
15405;BME280;7801;48.124;11.590;2023-12-20T09:46:00;95546.28;;;6.16;100.00
15405;BME280;7801;48.124;11.590;2023-12-20T09:48:26;95541.91;;;5.80;100.00
15405;BME280;7801;48.124;11.590;2023-12-20T09:50:51;95543.06;;;5.99;100.00
15405;BME280;7801;48.124;11.590;2023-12-20T09:53:17;95528.06;;;6.05;100.00
15405;BME280;7801;48.124;11.590;2023-12-20T09:55:44;95533.22;;;5.84;100.00
15405;BME280;7801;48.124;11.590;2023-12-20T09:58:10;95521.91;;;5.84;100.00
15405;BME280;7801;48.124;11.590;2023-12-20T10:00:35;95520.88;;;5.80;100.00
15405;BME280;7801;48.124;11.590;2023-12-20T10:03:01;95521.91;;;5.84;100.00
15405;BME280;7801;48.124;11.590;2023-12-20T10:05:31;95516.44;;;5.91;100.00
15405;BME280;7801;48.124;11.590;2023-12-20T10:07:58;95519.41;;;6.14;100.00
15405;BME280;7801;48.124;11.590;2023-12-20T10:10:32;95514.91;;;6.00;100.00
15405;BME280;7801;48.124;11.590;2023-12-20T10:13:05;95500.72;;;6.16;100.00
15405;BME280;7801;48.124;11.590;2023-12-20T10:15:32;95492.31;;;6.34;100.00
15405;BME280;7801;48.124;11.590;2023-12-20T10:17:58;95499.41;;;6.29;100.00
15405;BME280;7801;48.124;11.590;2023-12-20T10:20:25;95507.59;;;6.42;100.00
15405;BME280;7801;48.124;11.590;2023-12-20T10:22:52;95507.31;;;6.29;100.00
15405;BME280;7801;48.124;11.590;2023-12-20T10:25:19;95507.28;;;6.13;100.00
15405;BME280;7801;48.124;11.590;2023-12-20T10:31:07;95494.94;;;6.29;100.00
15405;BME280;7801;48.124;11.590;2023-12-20T10:33:32;95497.34;;;6.41;100.00
15405;BME280;7801;48.124;11.590;2023-12-20T10:35:57;95486.50;;;6.32;100.00
15405;BME280;7801;48.124;11.590;2023-12-20T10:38:23;95506.28;;;6.45;100.00
15405;BME280;7801;48.124;11.590;2023-12-20T10:40:54;95503.06;;;6.12;100.00
15405;BME280;7801;48.124;11.590;2023-12-20T10:43:22;95501.53;;;6.22;100.00
15405;BME280;7801;48.124;11.590;2023-12-20T10:45:48;95495.72;;;6.35;100.00
15405;BME280;7801;48.124;11.590;2023-12-20T10:48:14;95497.31;;;6.31;100.00
15405;BME280;7801;48.124;11.590;2023-12-20T10:50:41;95495.47;;;6.31;100.00
15405;BME280;7801;48.124;11.590;2023-12-20T10:53:06;95485.97;;;6.30;100.00
15405;BME280;7801;48.124;11.590;2023-12-20T10:55:32;95493.59;;;6.27;100.00
15405;BME280;7801;48.124;11.590;2023-12-20T10:58:02;95483.09;;;6.42;100.00
15405;BME280;7801;48.124;11.590;2023-12-20T11:00:31;95480.19;;;6.38;100.00
15405;BME280;7801;48.124;11.590;2023-12-20T11:03:00;95482.56;;;6.55;100.00
15405;BME280;7801;48.124;11.590;2023-12-20T11:08:17;95489.94;;;6.38;100.00
15405;BME280;7801;48.124;11.590;2023-12-20T11:10:53;95489.94;;;6.38;100.00
15405;BME280;7801;48.124;11.590;2023-12-20T11:13:41;95478.38;;;6.59;100.00
15405;BME280;7801;48.124;11.590;2023-12-20T11:16:09;95478.09;;;6.61;100.00
15405;BME280;7801;48.124;11.590;2023-12-20T11:18:35;95480.97;;;6.69;100.00
15405;BME280;7801;48.124;11.590;2023-12-20T11:21:02;95482.84;;;6.64;100.00
15405;BME280;7801;48.124;11.590;2023-12-20T11:23:30;95481.50;;;6.51;100.00
15405;BME280;7801;48.124;11.590;2023-12-20T11:25:58;95478.38;;;6.44;100.00
15405;BME280;7801;48.124;11.590;2023-12-20T11:28:26;95467.81;;;6.54;100.00
15405;BME280;7801;48.124;11.590;2023-12-20T11:30:53;95461.47;;;6.65;100.00
15405;BME280;7801;48.124;11.590;2023-12-20T11:33:29;95464.66;;;6.62;100.00
15405;BME280;7801;48.124;11.590;2023-12-20T11:35:59;95459.37;;;6.47;100.00
15405;BME280;7801;48.124;11.590;2023-12-20T11:38:35;95458.31;;;6.38;100.00
15405;BME280;7801;48.124;11.590;2023-12-20T11:41:01;95460.69;;;6.49;100.00
15405;BME280;7801;48.124;11.590;2023-12-20T11:43:39;95462.56;;;6.59;100.00
15405;BME280;7801;48.124;11.590;2023-12-20T11:46:08;95463.06;;;6.81;100.00
15405;BME280;7801;48.124;11.590;2023-12-20T11:48:38;95458.31;;;6.58;100.00
15405;BME280;7801;48.124;11.590;2023-12-20T11:51:11;95459.91;;;6.64;100.00
15405;BME280;7801;48.124;11.590;2023-12-20T11:53:36;95449.88;;;6.66;100.00
15405;BME280;7801;48.124;11.590;2023-12-20T11:56:03;95448.56;;;6.69;100.00
15405;BME280;7801;48.124;11.590;2023-12-20T11:58:29;95446.97;;;6.68;100.00
15405;BME280;7801;48.124;11.590;2023-12-20T12:00:55;95446.19;;;6.72;100.00
15405;BME280;7801;48.124;11.590;2023-12-20T12:03:20;95443.56;;;6.82;100.00
15405;BME280;7801;48.124;11.590;2023-12-20T12:05:49;95443.56;;;6.82;100.00
15405;BME280;7801;48.124;11.590;2023-12-20T12:08:14;95438.28;;;6.72;100.00
15405;BME280;7801;48.124;11.590;2023-12-20T12:10:39;95440.34;;;6.90;100.00
15405;BME280;7801;48.124;11.590;2023-12-20T12:13:05;95434.84;;;6.77;100.00
15405;BME280;7801;48.124;11.590;2023-12-20T12:15:30;95443.53;;;6.72;100.00
15405;BME280;7801;48.124;11.590;2023-12-20T12:17:57;95439.88;;;6.63;100.00
15405;BME280;7801;48.124;11.590;2023-12-20T12:20:23;95434.84;;;6.67;100.00
15405;BME280;7801;48.124;11.590;2023-12-20T12:23:03;95428.25;;;6.69;100.00
15405;BME280;7801;48.124;11.590;2023-12-20T12:25:30;95432.78;;;6.59;100.00
15405;BME280;7801;48.124;11.590;2023-12-20T12:27:56;95425.09;;;6.67;100.00
15405;BME280;7801;48.124;11.590;2023-12-20T12:30:22;95426.41;;;6.75;100.00
15405;BME280;7801;48.124;11.590;2023-12-20T12:32:48;95423.22;;;6.88;100.00
15405;BME280;7801;48.124;11.590;2023-12-20T12:35:13;95414.50;;;6.87;100.00
15405;BME280;7801;48.124;11.590;2023-12-20T12:37:41;95418.78;;;6.73;100.00
15405;BME280;7801;48.124;11.590;2023-12-20T12:40:10;95413.50;;;6.68;100.00
15405;BME280;7801;48.124;11.590;2023-12-20T12:42:39;95410.84;;;6.78;100.00
15405;BME280;7801;48.124;11.590;2023-12-20T12:45:05;95415.34;;;6.83;100.00
15405;BME280;7801;48.124;11.590;2023-12-20T12:47:31;95410.06;;;6.78;100.00
15405;BME280;7801;48.124;11.590;2023-12-20T12:49:56;95395.03;;;6.68;100.00
15405;BME280;7801;48.124;11.590;2023-12-20T12:52:22;95401.12;;;6.64;100.00
15405;BME280;7801;48.124;11.590;2023-12-20T12:54:49;95394.03;;;6.64;100.00
15405;BME280;7801;48.124;11.590;2023-12-20T12:57:15;95410.06;;;6.78;100.00
15405;BME280;7801;48.124;11.590;2023-12-20T12:59:43;95404.53;;;6.84;100.00
15405;BME280;7801;48.124;11.590;2023-12-20T13:02:16;95401.59;;;6.91;100.00
15405;BME280;7801;48.124;11.590;2023-12-20T13:04:43;95399.78;;;6.71;100.00